Time;durP1;ratioP1;P1;durP2;ratioP2;P2;SDS_P1;SDS_P2;PMS_P1;PMS_P2;Temp;Humidity;BMP_temperature;BMP_pressure;BME280_temperature;BME280_humidity;BME280_pressure;Samples;Min_cycle;Max_cycle;Signal;HPM_P1;HPM_P2
2022/12/04 00:01:05;;;;;;;;;;;1.10;99.90;;;;;;4957087;28;19922;-81
2022/12/04 00:03:31;;;;;;;;;;;1.10;99.90;;;;;;4960826;28;19918;-80
2022/12/04 00:06:11;;;;;;;;;;;1.50;99.90;;;;;;4963792;28;19976;-81
2022/12/04 00:08:36;;;;;;;;;;;1.10;99.90;;;;;;4966118;28;20728;-82
2022/12/04 00:11:02;;;;;;;;;;;1.10;99.90;;;;;;4973348;28;20064;-82
2022/12/04 00:13:28;;;;;;;;;;;1.10;99.90;;;;;;4945134;28;19922;-82
2022/12/04 00:15:53;;;;;;;;;;;1.10;99.90;;;;;;4951122;28;19922;-82
2022/12/04 00:18:19;;;;;;;;;;;1.10;99.90;;;;;;4978689;28;19918;-82
2022/12/04 00:20:45;;;;;;;;;;;2.60;99.90;;;;;;4966678;28;19938;-82
2022/12/04 00:23:10;;;;;;;;;;;2.80;99.90;;;;;;4958568;28;19953;-82
2022/12/04 00:25:36;;;;;;;;;;;2.90;99.90;;;;;;4958121;28;19918;-82
2022/12/04 00:28:02;;;;;;;;;;;0.80;99.90;;;;;;4958092;28;19917;-82
2022/12/04 00:30:30;;;;;;;;;;;1.10;99.90;;;;;;4964623;28;19968;-82
2022/12/04 00:32:55;;;;;;;;;;;2.50;99.90;;;;;;4962738;28;20421;-81
2022/12/04 00:35:21;;;;;;;;;;;1.00;99.90;;;;;;4973720;28;19921;-81
2022/12/04 00:37:46;;;;;;;;;;;2.70;99.90;;;;;;4973688;28;20401;-82
2022/12/04 00:40:12;;;;;;;;;;;1.00;99.90;;;;;;4958004;28;19984;-82
2022/12/04 00:42:38;;;;;;;;;;;1.00;99.90;;;;;;4955254;28;20020;-82
2022/12/04 00:45:04;;;;;;;;;;;0.90;99.90;;;;;;4967381;28;19972;-82
2022/12/04 00:47:29;;;;;;;;;;;1.00;99.90;;;;;;4964713;28;20001;-81
2022/12/04 00:49:55;;;;;;;;;;;0.90;99.90;;;;;;4992729;28;19917;-80
2022/12/04 00:52:21;;;;;;;;;;;1.60;99.90;;;;;;4961876;28;19917;-81
2022/12/04 00:54:46;;;;;;;;;;;1.00;99.90;;;;;;4968130;28;20013;-82
2022/12/04 00:57:12;;;;;;;;;;;0.90;99.90;;;;;;4961036;28;19922;-81
2022/12/04 00:59:38;;;;;;;;;;;0.90;99.90;;;;;;4977414;28;20346;-81
2022/12/04 01:02:03;;;;;;;;;;;2.00;99.90;;;;;;4949420;28;19922;-81
2022/12/04 01:04:29;;;;;;;;;;;2.20;99.90;;;;;;4977721;28;19918;-81
2022/12/04 01:06:54;;;;;;;;;;;2.20;99.90;;;;;;4960801;28;19980;-81
2022/12/04 01:09:20;;;;;;;;;;;1.60;99.90;;;;;;4960670;28;20004;-82
2022/12/04 01:11:46;;;;;;;;;;;3.00;99.90;;;;;;4990956;28;19917;-82
2022/12/04 01:14:11;;;;;;;;;;;1.10;99.90;;;;;;4960567;28;20008;-82
2022/12/04 01:16:38;;;;;;;;;;;2.60;99.90;;;;;;4960485;28;20004;-82
2022/12/04 01:19:05;;;;;;;;;;;0.80;99.90;;;;;;4962658;28;19918;-82
2022/12/04 01:21:31;;;;;;;;;;;0.80;99.90;;;;;;4969862;28;19928;-81
2022/12/04 01:23:57;;;;;;;;;;;2.80;99.90;;;;;;4965328;28;19968;-81
2022/12/04 01:26:23;;;;;;;;;;;2.50;99.90;;;;;;4981073;28;19922;-81
2022/12/04 01:28:48;;;;;;;;;;;2.70;99.90;;;;;;4976338;28;19924;-81
2022/12/04 01:31:16;;;;;;;;;;;0.60;99.90;;;;;;4972044;28;19917;-81
2022/12/04 01:33:41;;;;;;;;;;;1.60;99.90;;;;;;4980805;28;19980;-81
2022/12/04 01:36:09;;;;;;;;;;;1.50;99.90;;;;;;4966997;28;19957;-81
2022/12/04 01:38:34;;;;;;;;;;;0.60;99.90;;;;;;4966715;28;19918;-81
2022/12/04 01:41:00;;;;;;;;;;;0.60;99.90;;;;;;4981386;28;19922;-80
2022/12/04 01:43:27;;;;;;;;;;;1.90;99.90;;;;;;4976793;28;19933;-80
2022/12/04 01:45:53;;;;;;;;;;;2.10;99.90;;;;;;4973818;28;19928;-81
2022/12/04 01:48:27;;;;;;;;;;;0.60;99.90;;;;;;4962135;28;19918;-81
2022/12/04 01:50:57;;;;;;;;;;;0.60;99.90;;;;;;4969092;28;19921;-81
2022/12/04 01:53:23;;;;;;;;;;;1.70;99.90;;;;;;4966795;28;19929;-80
2022/12/04 01:55:49;;;;;;;;;;;0.50;99.90;;;;;;4948259;28;19922;-80
2022/12/04 01:58:16;;;;;;;;;;;2.30;99.90;;;;;;4976267;28;20282;-81
2022/12/04 02:00:42;;;;;;;;;;;1.10;99.90;;;;;;4966751;28;19926;-80
2022/12/04 02:03:07;;;;;;;;;;;1.40;99.90;;;;;;4976660;28;19918;-81
2022/12/04 02:05:33;;;;;;;;;;;2.50;99.90;;;;;;4960211;28;19922;-81
2022/12/04 02:08:00;;;;;;;;;;;2.20;99.90;;;;;;4960417;28;19917;-81
2022/12/04 02:10:37;;;;;;;;;;;2.10;99.90;;;;;;4964200;28;19950;-81
2022/12/04 02:13:08;;;;;;;;;;;1.10;99.90;;;;;;4966615;28;19933;-82
2022/12/04 02:15:38;;;;;;;;;;;0.50;99.90;;;;;;4971444;28;19918;-81
2022/12/04 02:18:23;;;;;;;;;;;0.50;99.90;;;;;;4966800;28;19968;-81
2022/12/04 02:20:51;;;;;;;;;;;0.50;99.90;;;;;;4974141;28;19944;-82
2022/12/04 02:23:35;;;;;;;;;;;2.00;99.90;;;;;;4968413;28;19927;-81
2022/12/04 02:26:07;;;;;;;;;;;0.50;99.90;;;;;;4968365;28;19921;-81
2022/12/04 02:28:33;;;;;;;;;;;0.50;99.90;;;;;;4986929;28;19929;-81
2022/12/04 02:30:59;;;;;;;;;;;2.50;99.90;;;;;;4984125;28;19918;-82
2022/12/04 02:33:28;;;;;;;;;;;0.40;99.90;;;;;;4968160;28;19922;-82
2022/12/04 02:35:56;;;;;;;;;;;0.40;99.90;;;;;;4967830;28;20036;-81
2022/12/04 02:38:45;;;;;;;;;;;1.90;99.90;;;;;;4963298;28;19918;-81
2022/12/04 02:41:20;;;;;;;;;;;0.40;99.90;;;;;;4976720;28;19961;-81
2022/12/04 02:43:47;;;;;;;;;;;0.50;99.90;;;;;;4973650;28;19924;-81
2022/12/04 02:46:20;;;;;;;;;;;1.60;99.90;;;;;;4962512;28;20020;-81
2022/12/04 02:48:48;;;;;;;;;;;0.50;99.90;;;;;;4966548;28;19917;-81
2022/12/04 02:51:14;;;;;;;;;;;0.50;99.90;;;;;;4979026;28;20282;-81
2022/12/04 02:53:41;;;;;;;;;;;2.50;99.90;;;;;;4969901;28;20012;-81
2022/12/04 02:56:09;;;;;;;;;;;0.40;99.90;;;;;;4971358;28;20313;-81
2022/12/04 02:58:38;;;;;;;;;;;0.40;99.90;;;;;;4968308;28;19918;-81
2022/12/04 03:01:18;;;;;;;;;;;0.40;99.90;;;;;;4968043;28;19922;-81
2022/12/04 03:03:47;;;;;;;;;;;0.40;99.90;;;;;;4975678;28;19918;-81
2022/12/04 03:06:14;;;;;;;;;;;0.40;99.90;;;;;;4982665;28;19969;-81
2022/12/04 03:08:43;;;;;;;;;;;0.40;99.90;;;;;;4992422;28;19925;-81
2022/12/04 03:11:09;;;;;;;;;;;0.30;99.90;;;;;;4988586;28;20282;-81
2022/12/04 03:13:38;;;;;;;;;;;2.30;99.90;;;;;;4949718;28;19929;-81
2022/12/04 03:16:06;;;;;;;;;;;0.40;99.90;;;;;;4967718;28;19918;-81
2022/12/04 03:18:34;;;;;;;;;;;0.40;99.90;;;;;;4970645;28;20051;-82
2022/12/04 03:21:21;;;;;;;;;;;0.40;99.90;;;;;;4957744;28;19948;-82
2022/12/04 03:23:49;;;;;;;;;;;0.40;99.90;;;;;;4982690;28;19929;-81
2022/12/04 03:26:30;;;;;;;;;;;0.30;99.90;;;;;;4986363;28;20302;-81
2022/12/04 03:28:58;;;;;;;;;;;0.30;99.90;;;;;;4967577;28;20474;-81
2022/12/04 03:32:00;;;;;;;;;;;1.20;99.90;;;;;;4962982;28;20092;-81
2022/12/04 03:34:32;;;;;;;;;;;0.40;99.90;;;;;;4900454;29;19926;-81
2022/12/04 03:37:01;;;;;;;;;;;1.80;99.90;;;;;;4976345;28;19993;-81
2022/12/04 03:39:37;;;;;;;;;;;0.30;99.90;;;;;;4962923;28;20494;-81
2022/12/04 03:42:05;;;;;;;;;;;0.30;99.90;;;;;;4967597;28;19985;-81
2022/12/04 03:44:35;;;;;;;;;;;0.30;99.90;;;;;;4972177;28;19947;-81
2022/12/04 03:47:06;;;;;;;;;;;1.70;99.90;;;;;;4962337;28;19918;-81
2022/12/04 03:49:51;;;;;;;;;;;0.40;99.90;;;;;;4969859;28;20365;-81
2022/12/04 03:52:22;;;;;;;;;;;0.30;99.90;;;;;;4965020;28;19918;-82
2022/12/04 03:54:59;;;;;;;;;;;1.60;99.90;;;;;;4964656;28;19925;-81
2022/12/04 03:57:28;;;;;;;;;;;0.30;99.90;;;;;;4985721;28;19925;-81
2022/12/04 03:59:59;;;;;;;;;;;0.80;99.90;;;;;;4959446;28;19925;-81
2022/12/04 04:02:26;;;;;;;;;;;0.30;99.90;;;;;;4980648;28;19937;-81
2022/12/04 04:04:54;;;;;;;;;;;0.30;99.90;;;;;;4978225;28;19922;-81
2022/12/04 04:07:24;;;;;;;;;;;2.20;99.90;;;;;;4967047;28;19972;-81
2022/12/04 04:09:54;;;;;;;;;;;0.20;99.90;;;;;;4962622;28;19922;-81
2022/12/04 04:12:21;;;;;;;;;;;0.20;99.90;;;;;;4975870;28;19922;-81
2022/12/04 04:26:07;;;;;;;;;;;0.20;99.90;;;;;;4995282;28;19924;-82
2022/12/04 04:28:40;;;;;;;;;;;1.50;99.90;;;;;;4978472;28;20406;-82
2022/12/04 04:31:24;;;;;;;;;;;0.30;99.90;;;;;;5000146;28;19976;-82
2022/12/04 04:34:00;;;;;;;;;;;0.20;99.90;;;;;;4975189;28;19964;-82
2022/12/04 04:36:46;;;;;;;;;;;0.20;99.90;;;;;;4971287;28;19925;-82
2022/12/04 04:39:34;;;;;;;;;;;0.20;99.90;;;;;;4958518;28;19940;-82
2022/12/04 04:42:11;;;;;;;;;;;0.20;99.90;;;;;;4967751;28;19922;-81
2022/12/04 04:44:43;;;;;;;;;;;0.20;99.90;;;;;;4993057;28;19917;-81
2022/12/04 04:47:13;;;;;;;;;;;0.20;99.90;;;;;;4965638;28;19922;-81
2022/12/04 04:49:39;;;;;;;;;;;2.10;99.90;;;;;;4970324;28;19918;-81
2022/12/04 04:52:05;;;;;;;;;;;1.70;99.90;;;;;;4970235;28;19918;-81
2022/12/04 04:54:32;;;;;;;;;;;0.10;99.90;;;;;;4956725;28;20329;-80
2022/12/04 04:56:58;;;;;;;;;;;0.20;99.90;;;;;;4963116;28;19925;-81
2022/12/04 04:59:23;;;;;;;;;;;0.20;99.90;;;;;;4961225;28;20285;-81
2022/12/04 05:01:49;;;;;;;;;;;0.60;99.90;;;;;;4963197;28;19965;-81
2022/12/04 05:04:15;;;;;;;;;;;1.40;99.90;;;;;;4988413;28;19917;-82
2022/12/04 05:06:40;;;;;;;;;;;0.20;99.90;;;;;;4983789;28;20020;-81
2022/12/04 05:09:06;;;;;;;;;;;0.20;99.90;;;;;;4967188;28;19940;-82
2022/12/04 05:11:31;;;;;;;;;;;0.20;99.90;;;;;;4965429;28;20870;-82
2022/12/04 05:13:57;;;;;;;;;;;2.10;99.90;;;;;;4967307;28;19930;-82
2022/12/04 05:16:23;;;;;;;;;;;1.20;99.90;;;;;;4974342;28;19918;-82
2022/12/04 05:21:33;;;;;;;;;;;1.70;99.90;;;;;;4995465;28;19933;-81
2022/12/04 05:23:59;;;;;;;;;;;0.60;99.90;;;;;;4967361;28;19918;-81
2022/12/04 05:26:24;;;;;;;;;;;-0.10;99.90;;;;;;4965396;28;19918;-81
2022/12/04 05:28:50;;;;;;;;;;;0.20;99.90;;;;;;4970467;28;19926;-81
2022/12/04 05:31:16;;;;;;;;;;;1.40;99.90;;;;;;4971759;28;20012;-82
2022/12/04 05:33:41;;;;;;;;;;;0.70;99.90;;;;;;4969599;28;20176;-82
2022/12/04 05:36:09;;;;;;;;;;;0.20;99.90;;;;;;4966319;28;19924;-81
2022/12/04 05:38:35;;;;;;;;;;;0.30;99.90;;;;;;4992782;28;19953;-81
2022/12/04 05:41:01;;;;;;;;;;;1.90;99.90;;;;;;4969247;28;20359;-81
2022/12/04 05:43:27;;;;;;;;;;;0.20;99.90;;;;;;4971528;28;19924;-81
2022/12/04 05:45:52;;;;;;;;;;;0.40;99.90;;;;;;4969462;28;19961;-80
2022/12/04 05:48:18;;;;;;;;;;;1.90;99.90;;;;;;4969146;28;20366;-80
2022/12/04 05:50:43;;;;;;;;;;;0.10;99.90;;;;;;4960702;28;19917;-81
2022/12/04 05:53:09;;;;;;;;;;;1.40;99.90;;;;;;4959937;28;19922;-81
2022/12/04 05:55:35;;;;;;;;;;;0.20;99.90;;;;;;4983242;28;19925;-81
2022/12/04 05:58:01;;;;;;;;;;;0.20;99.90;;;;;;4982490;28;19918;-82
2022/12/04 06:00:27;;;;;;;;;;;2.00;99.90;;;;;;4945684;28;19921;-82
2022/12/04 06:02:52;;;;;;;;;;;1.80;99.90;;;;;;4966908;28;19928;-81
2022/12/04 06:05:18;;;;;;;;;;;1.50;99.90;;;;;;4955025;28;20386;-82
2022/12/04 06:07:43;;;;;;;;;;;0.30;99.90;;;;;;4968901;28;20298;-82
2022/12/04 06:10:09;;;;;;;;;;;1.70;99.90;;;;;;4959561;28;19995;-82
2022/12/04 06:12:35;;;;;;;;;;;0.40;99.90;;;;;;4949448;28;19922;-82
2022/12/04 06:15:00;;;;;;;;;;;0.40;99.90;;;;;;4974662;28;19945;-82
2022/12/04 06:17:26;;;;;;;;;;;1.30;99.90;;;;;;4968009;28;19918;-82
2022/12/04 06:19:52;;;;;;;;;;;0.40;99.90;;;;;;4991162;28;20201;-82
2022/12/04 06:22:17;;;;;;;;;;;0.40;99.90;;;;;;4974415;28;20365;-81
2022/12/04 06:24:43;;;;;;;;;;;1.80;99.90;;;;;;4946855;28;20009;-82
2022/12/04 06:27:09;;;;;;;;;;;0.40;99.90;;;;;;4965102;28;19924;-82
2022/12/04 06:29:34;;;;;;;;;;;0.40;99.90;;;;;;4975515;28;20012;-82
2022/12/04 06:32:00;;;;;;;;;;;0.40;99.90;;;;;;4958864;28;19924;-82
2022/12/04 06:34:25;;;;;;;;;;;0.30;99.90;;;;;;4974918;28;20009;-81
2022/12/04 06:36:51;;;;;;;;;;;0.50;99.90;;;;;;4973032;28;19968;-82
2022/12/04 06:39:17;;;;;;;;;;;0.80;99.90;;;;;;4958942;28;19918;-81
2022/12/04 06:41:42;;;;;;;;;;;0.50;99.90;;;;;;4952357;28;19930;-81
2022/12/04 06:44:08;;;;;;;;;;;0.50;99.90;;;;;;4986501;28;19924;-81
2022/12/04 06:46:34;;;;;;;;;;;1.30;99.90;;;;;;4953676;28;19918;-81
2022/12/04 06:49:00;;;;;;;;;;;0.50;99.90;;;;;;4962666;28;19967;-81
2022/12/04 06:51:30;;;;;;;;;;;0.50;99.90;;;;;;4974967;28;19964;-81
2022/12/04 06:53:56;;;;;;;;;;;0.50;99.90;;;;;;4982034;28;20370;-81
2022/12/04 06:56:23;;;;;;;;;;;0.50;99.90;;;;;;4967435;28;19918;-82
2022/12/04 06:58:50;;;;;;;;;;;1.60;99.90;;;;;;4963200;28;19922;-81
2022/12/04 07:01:17;;;;;;;;;;;0.50;99.90;;;;;;4964296;28;20015;-81
2022/12/04 07:03:43;;;;;;;;;;;2.40;99.90;;;;;;4967767;28;19925;-81
2022/12/04 07:06:13;;;;;;;;;;;0.50;99.90;;;;;;4967369;28;20547;-81
2022/12/04 07:08:38;;;;;;;;;;;0.40;99.90;;;;;;4986161;28;19968;-81
2022/12/04 07:11:06;;;;;;;;;;;1.90;99.90;;;;;;4974604;28;19921;-82
2022/12/04 07:13:32;;;;;;;;;;;0.50;99.90;;;;;;4949777;28;19973;-81
2022/12/04 07:16:01;;;;;;;;;;;0.50;99.90;;;;;;4975241;28;19940;-81
2022/12/04 07:18:27;;;;;;;;;;;0.50;99.90;;;;;;4967914;28;20413;-81
2022/12/04 07:20:53;;;;;;;;;;;2.30;99.90;;;;;;4983664;28;19928;-82
2022/12/04 07:23:19;;;;;;;;;;;2.40;99.90;;;;;;4958197;28;20374;-81
2022/12/04 07:25:44;;;;;;;;;;;2.70;99.90;;;;;;4982035;28;19918;-81
2022/12/04 07:28:10;;;;;;;;;;;2.60;99.90;;;;;;4955893;28;19925;-82
2022/12/04 07:30:36;;;;;;;;;;;1.10;99.90;;;;;;4964847;28;19941;-82
2022/12/04 07:33:02;;;;;;;;;;;2.40;99.90;;;;;;4974775;28;19917;-82
2022/12/04 07:35:27;;;;;;;;;;;1.50;99.90;;;;;;4958374;28;19918;-82
2022/12/04 07:37:53;;;;;;;;;;;0.60;99.90;;;;;;4958453;28;19924;-82
2022/12/04 07:40:18;;;;;;;;;;;2.70;99.90;;;;;;4957796;28;19925;-81
2022/12/04 07:42:44;;;;;;;;;;;0.70;99.90;;;;;;4969696;28;19928;-82
2022/12/04 07:45:10;;;;;;;;;;;1.70;99.90;;;;;;4958444;28;19940;-81
2022/12/04 07:47:35;;;;;;;;;;;0.60;99.90;;;;;;4969641;28;19925;-82
2022/12/04 07:50:01;;;;;;;;;;;1.00;99.90;;;;;;4981370;28;20294;-82
2022/12/04 07:52:27;;;;;;;;;;;0.60;99.90;;;;;;4973907;28;20464;-82
2022/12/04 07:54:52;;;;;;;;;;;1.70;99.90;;;;;;4974278;28;19929;-81
2022/12/04 07:57:18;;;;;;;;;;;2.70;99.90;;;;;;4967459;28;20410;-81
2022/12/04 07:59:44;;;;;;;;;;;2.50;99.90;;;;;;4953091;28;19997;-80
2022/12/04 08:02:10;;;;;;;;;;;0.50;99.90;;;;;;4961702;28;19921;-80
2022/12/04 08:04:36;;;;;;;;;;;0.60;99.90;;;;;;4973741;28;20268;-82
2022/12/04 08:07:02;;;;;;;;;;;2.00;99.90;;;;;;4957492;28;19929;-81
2022/12/04 08:09:27;;;;;;;;;;;0.70;99.90;;;;;;4977760;28;19925;-81
2022/12/04 08:11:53;;;;;;;;;;;1.00;99.90;;;;;;4962051;28;20493;-80
2022/12/04 08:14:19;;;;;;;;;;;0.70;99.90;;;;;;4961898;28;19930;-81
2022/12/04 08:16:44;;;;;;;;;;;0.70;99.90;;;;;;4971237;28;19918;-81
2022/12/04 08:19:10;;;;;;;;;;;0.80;99.90;;;;;;4978471;28;19918;-81
2022/12/04 08:21:35;;;;;;;;;;;0.80;99.90;;;;;;4977757;28;19922;-82
2022/12/04 08:24:01;;;;;;;;;;;1.90;99.90;;;;;;4977875;28;19973;-81
2022/12/04 08:26:28;;;;;;;;;;;0.80;99.90;;;;;;4944940;28;19926;-82
2022/12/04 08:28:55;;;;;;;;;;;2.50;99.90;;;;;;4993015;28;19918;-81
2022/12/04 08:31:22;;;;;;;;;;;3.00;99.90;;;;;;4970894;28;19925;-81
2022/12/04 08:33:49;;;;;;;;;;;0.80;99.90;;;;;;4966500;28;19918;-81
2022/12/04 08:36:16;;;;;;;;;;;2.10;99.90;;;;;;4994350;28;20306;-81
2022/12/04 08:38:42;;;;;;;;;;;0.90;99.90;;;;;;4985234;28;19917;-81
2022/12/04 08:41:09;;;;;;;;;;;0.90;99.90;;;;;;4968916;28;20282;-81
2022/12/04 08:43:35;;;;;;;;;;;0.80;99.90;;;;;;4980397;28;19964;-81
2022/12/04 08:46:02;;;;;;;;;;;2.90;99.90;;;;;;4987710;28;19921;-81
2022/12/04 08:48:28;;;;;;;;;;;2.50;99.90;;;;;;4992240;28;20332;-81
2022/12/04 08:50:54;;;;;;;;;;;2.70;99.90;;;;;;4966123;28;20048;-82
2022/12/04 08:53:20;;;;;;;;;;;1.00;99.90;;;;;;4963040;28;19918;-80
2022/12/04 08:55:45;;;;;;;;;;;2.60;99.90;;;;;;4977294;28;19925;-80
2022/12/04 08:58:11;;;;;;;;;;;1.00;99.90;;;;;;4977196;28;19917;-81
2022/12/04 09:00:37;;;;;;;;;;;1.00;99.90;;;;;;4977065;28;19924;-81
2022/12/04 09:03:02;;;;;;;;;;;1.10;99.90;;;;;;4991242;28;19961;-80
2022/12/04 09:05:29;;;;;;;;;;;1.10;99.90;;;;;;4974351;28;20000;-78
2022/12/04 09:07:54;;;;;;;;;;;1.10;99.90;;;;;;4978932;28;19969;-78
2022/12/04 09:10:20;;;;;;;;;;;2.60;99.90;;;;;;4984337;28;19926;-78
2022/12/04 09:12:45;;;;;;;;;;;1.20;99.90;;;;;;4969835;28;19987;-78
2022/12/04 09:15:11;;;;;;;;;;;1.30;99.90;;;;;;4985878;28;19925;-79
2022/12/04 09:17:37;;;;;;;;;;;1.20;99.90;;;;;;4971683;28;19917;-80
2022/12/04 09:20:03;;;;;;;;;;;2.60;99.90;;;;;;4965540;28;19922;-80
2022/12/04 09:22:28;;;;;;;;;;;1.30;99.90;;;;;;4986162;28;20037;-80
2022/12/04 09:24:54;;;;;;;;;;;1.30;99.90;;;;;;4982020;28;19946;-79
2022/12/04 09:27:20;;;;;;;;;;;1.40;99.90;;;;;;4978987;28;19917;-79
2022/12/04 09:29:45;;;;;;;;;;;1.30;99.90;;;;;;4985751;28;20056;-80
2022/12/04 09:32:11;;;;;;;;;;;1.40;99.90;;;;;;4979411;28;20294;-78
2022/12/04 09:34:36;;;;;;;;;;;1.40;99.90;;;;;;4984899;28;19922;-79
2022/12/04 09:37:02;;;;;;;;;;;2.80;99.90;;;;;;4967204;28;20104;-79
2022/12/04 09:39:27;;;;;;;;;;;1.40;99.90;;;;;;4992806;28;20373;-79
2022/12/04 09:42:12;;;;;;;;;;;1.40;99.90;;;;;;4966833;28;19988;-79
2022/12/04 09:44:37;;;;;;;;;;;1.50;99.90;;;;;;4991770;28;19918;-78
2022/12/04 09:47:21;;;;;;;;;;;1.50;99.90;;;;;;4980910;28;20294;-80
2022/12/04 09:49:54;;;;;;;;;;;1.60;99.90;;;;;;4986662;28;20349;-79
2022/12/04 09:52:41;;;;;;;;;;;1.60;99.90;;;;;;4983519;28;20298;-78
2022/12/04 09:55:11;;;;;;;;;;;1.60;99.90;;;;;;4962927;28;20362;-79
2022/12/04 09:57:39;;;;;;;;;;;1.60;99.90;;;;;;4966491;28;19925;-80
2022/12/04 10:00:05;;;;;;;;;;;1.70;99.90;;;;;;4985825;28;20359;-80
2022/12/04 10:02:36;;;;;;;;;;;1.70;99.90;;;;;;4974181;28;19937;-80
2022/12/04 10:05:02;;;;;;;;;;;1.80;99.90;;;;;;4967530;28;19918;-80
2022/12/04 10:07:31;;;;;;;;;;;1.80;99.90;;;;;;4985302;28;20008;-81
2022/12/04 10:10:01;;;;;;;;;;;1.80;99.90;;;;;;4967018;28;20038;-81
2022/12/04 10:12:35;;;;;;;;;;;1.90;99.90;;;;;;4982887;28;19921;-79
2022/12/04 10:15:19;;;;;;;;;;;1.90;99.90;;;;;;4982134;28;20004;-79
2022/12/04 10:17:48;;;;;;;;;;;1.90;99.90;;;;;;4983313;28;19917;-79
2022/12/04 10:20:34;;;;;;;;;;;2.00;99.90;;;;;;4982007;28;19917;-80
2022/12/04 10:23:06;;;;;;;;;;;2.00;99.90;;;;;;4976889;28;19922;-80
2022/12/04 10:25:35;;;;;;;;;;;2.00;99.90;;;;;;4985723;28;19929;-82
2022/12/04 10:28:19;;;;;;;;;;;2.00;99.90;;;;;;4971670;28;19918;-80
2022/12/04 10:30:46;;;;;;;;;;;2.00;99.90;;;;;;4987107;28;19918;-79
2022/12/04 10:33:17;;;;;;;;;;;2.00;99.90;;;;;;4967191;28;19917;-81
2022/12/04 10:35:44;;;;;;;;;;;2.10;99.90;;;;;;4965951;28;19917;-78
2022/12/04 10:38:25;;;;;;;;;;;2.10;99.90;;;;;;4992887;28;19917;-79
2022/12/04 10:40:53;;;;;;;;;;;2.10;99.90;;;;;;4981295;28;19922;-79
2022/12/04 10:43:19;;;;;;;;;;;3.40;99.90;;;;;;4979812;28;19940;-79
2022/12/04 10:45:44;;;;;;;;;;;3.00;99.90;;;;;;4989526;28;21619;-79
2022/12/04 10:48:20;;;;;;;;;;;2.10;99.90;;;;;;4981197;28;20373;-78
2022/12/04 10:50:46;;;;;;;;;;;2.20;99.90;;;;;;4961881;28;19953;-78
2022/12/04 10:53:13;;;;;;;;;;;2.20;99.90;;;;;;4980818;28;19924;-79
2022/12/04 10:55:39;;;;;;;;;;;2.20;99.90;;;;;;4986006;28;19918;-79
2022/12/04 10:58:14;;;;;;;;;;;2.20;99.90;;;;;;4976661;28;19980;-83
2022/12/04 11:00:40;;;;;;;;;;;2.20;99.90;;;;;;4970318;28;19931;-81
2022/12/04 11:03:20;;;;;;;;;;;3.00;99.90;;;;;;4959084;28;20358;-83
2022/12/04 11:05:54;;;;;;;;;;;2.30;99.90;;;;;;4984603;28;19924;-85
2022/12/04 11:08:24;;;;;;;;;;;2.30;99.90;;;;;;4966718;28;19925;-82
2022/12/04 11:11:05;;;;;;;;;;;2.30;99.90;;;;;;4987365;28;19924;-83
2022/12/04 11:13:30;;;;;;;;;;;2.30;99.90;;;;;;4981960;28;20424;-82
2022/12/04 11:15:57;;;;;;;;;;;2.40;99.90;;;;;;4975421;28;19918;-83
2022/12/04 11:18:22;;;;;;;;;;;2.40;99.90;;;;;;4967594;28;19925;-82
2022/12/04 11:20:50;;;;;;;;;;;2.40;99.90;;;;;;4972080;28;19996;-82
2022/12/04 11:23:16;;;;;;;;;;;2.40;99.90;;;;;;4981544;28;20347;-82
2022/12/04 11:25:47;;;;;;;;;;;1.90;99.90;;;;;;4974165;28;19968;-81
2022/12/04 11:28:21;;;;;;;;;;;2.40;99.90;;;;;;4989093;28;19921;-83
2022/12/04 11:30:49;;;;;;;;;;;2.40;99.90;;;;;;4967327;28;19922;-81
2022/12/04 11:33:21;;;;;;;;;;;2.40;99.90;;;;;;4985695;28;19918;-82
2022/12/04 11:35:51;;;;;;;;;;;2.40;99.90;;;;;;4976555;28;19993;-83
2022/12/04 11:38:17;;;;;;;;;;;2.40;99.90;;;;;;4986371;28;20366;-82
2022/12/04 11:40:47;;;;;;;;;;;2.40;99.90;;;;;;4974138;28;19922;-83
2022/12/04 11:43:14;;;;;;;;;;;2.40;99.90;;;;;;4970123;28;19964;-84
2022/12/04 11:45:39;;;;;;;;;;;2.40;99.90;;;;;;4970188;28;19917;-81
2022/12/04 11:48:16;;;;;;;;;;;2.40;99.90;;;;;;4976708;28;20040;-81
2022/12/04 11:50:48;;;;;;;;;;;2.40;99.90;;;;;;4964220;28;19925;-80
2022/12/04 11:53:28;;;;;;;;;;;2.40;99.90;;;;;;4965691;28;19925;-80
2022/12/04 11:55:56;;;;;;;;;;;2.40;99.90;;;;;;4966301;28;20390;-79
2022/12/04 11:58:22;;;;;;;;;;;2.50;99.90;;;;;;4966597;28;20161;-80
2022/12/04 12:00:57;;;;;;;;;;;3.30;99.90;;;;;;4965253;28;20298;-80
2022/12/04 12:03:29;;;;;;;;;;;2.50;99.90;;;;;;4981346;28;20061;-79
2022/12/04 12:05:55;;;;;;;;;;;2.40;99.90;;;;;;4967818;28;19940;-78
2022/12/04 12:08:20;;;;;;;;;;;2.50;99.90;;;;;;4985555;28;19951;-79
2022/12/04 12:10:58;;;;;;;;;;;2.50;99.90;;;;;;4982909;28;20485;-78
2022/12/04 12:13:39;;;;;;;;;;;2.50;99.90;;;;;;4973062;28;19922;-81
2022/12/04 12:16:10;;;;;;;;;;;2.50;99.90;;;;;;4975763;28;19918;-80
2022/12/04 12:18:39;;;;;;;;;;;2.50;99.90;;;;;;4985250;28;19918;-82
2022/12/04 12:21:09;;;;;;;;;;;2.50;99.90;;;;;;4983269;28;19921;-81
2022/12/04 12:23:34;;;;;;;;;;;2.60;99.90;;;;;;4980718;28;19917;-82
2022/12/04 12:26:13;;;;;;;;;;;2.50;99.90;;;;;;4982013;28;19924;-83
2022/12/04 12:28:51;;;;;;;;;;;2.60;99.90;;;;;;4982692;28;19926;-83
2022/12/04 12:31:36;;;;;;;;;;;2.60;99.90;;;;;;4969687;28;19925;-83
2022/12/04 12:34:10;;;;;;;;;;;2.60;99.90;;;;;;4985662;28;20061;-83
2022/12/04 12:36:39;;;;;;;;;;;2.60;99.90;;;;;;4977895;28;19941;-83
2022/12/04 12:39:28;;;;;;;;;;;2.60;99.90;;;;;;4968130;28;20397;-83
2022/12/04 12:41:59;;;;;;;;;;;2.60;99.90;;;;;;4966872;28;19929;-82
2022/12/04 12:44:46;;;;;;;;;;;2.60;99.90;;;;;;4966881;28;19980;-82
2022/12/04 12:47:13;;;;;;;;;;;2.60;99.90;;;;;;4979840;28;20255;-82
2022/12/04 12:49:55;;;;;;;;;;;2.60;99.90;;;;;;4986833;28;20075;-81
2022/12/04 12:52:24;;;;;;;;;;;2.60;99.90;;;;;;4988346;28;19968;-81
2022/12/04 12:54:56;;;;;;;;;;;2.60;99.90;;;;;;4984807;28;19922;-82
2022/12/04 12:57:30;;;;;;;;;;;2.60;99.90;;;;;;4973683;28;20397;-82
2022/12/04 13:00:03;;;;;;;;;;;2.60;99.90;;;;;;4978339;28;20006;-82
2022/12/04 13:02:35;;;;;;;;;;;2.60;99.90;;;;;;4978336;28;20001;-82
2022/12/04 13:05:05;;;;;;;;;;;2.50;99.90;;;;;;4982232;28;19917;-82
2022/12/04 13:07:40;;;;;;;;;;;2.70;99.90;;;;;;4982432;28;19950;-82
2022/12/04 13:10:11;;;;;;;;;;;2.60;99.90;;;;;;4978908;28;19924;-81
2022/12/04 13:12:52;;;;;;;;;;;2.60;99.90;;;;;;4984420;28;20401;-82
2022/12/04 13:15:20;;;;;;;;;;;2.60;99.90;;;;;;4980917;28;20004;-82
2022/12/04 13:17:47;;;;;;;;;;;2.70;99.90;;;;;;4976514;28;20012;-82
2022/12/04 13:20:18;;;;;;;;;;;2.70;99.90;;;;;;4986908;28;19918;-80
2022/12/04 13:23:12;;;;;;;;;;;2.70;99.90;;;;;;4983312;28;19929;-78
2022/12/04 13:25:51;;;;;;;;;;;2.70;99.90;;;;;;4984099;28;20677;-79
2022/12/04 13:28:24;;;;;;;;;;;2.50;99.90;;;;;;4984515;28;19918;-79
2022/12/04 13:30:49;;;;;;;;;;;2.90;99.90;;;;;;4980401;28;19926;-79
2022/12/04 13:33:15;;;;;;;;;;;2.70;99.90;;;;;;4984432;28;19918;-79
2022/12/04 13:35:49;;;;;;;;;;;3.00;99.90;;;;;;4968840;28;20000;-78
2022/12/04 13:38:27;;;;;;;;;;;2.80;99.90;;;;;;4973812;28;20013;-78
2022/12/04 13:40:57;;;;;;;;;;;2.80;99.90;;;;;;4973489;28;19936;-79
2022/12/04 13:43:23;;;;;;;;;;;2.80;99.90;;;;;;4982461;28;19965;-79
2022/12/04 13:45:50;;;;;;;;;;;2.80;99.90;;;;;;4978779;28;19961;-79
2022/12/04 13:48:25;;;;;;;;;;;2.80;99.90;;;;;;4974094;28;19953;-80
2022/12/04 13:50:59;;;;;;;;;;;3.90;99.90;;;;;;4983638;28;20293;-79
2022/12/04 13:53:39;;;;;;;;;;;2.80;99.90;;;;;;4981669;28;20382;-79
2022/12/04 13:56:05;;;;;;;;;;;2.80;99.90;;;;;;4976362;28;20371;-79
2022/12/04 13:58:32;;;;;;;;;;;3.00;99.90;;;;;;4980153;28;19926;-79
2022/12/04 14:01:02;;;;;;;;;;;2.80;99.90;;;;;;4973258;28;19918;-79
2022/12/04 14:03:32;;;;;;;;;;;2.80;99.90;;;;;;4980936;28;19922;-79
2022/12/04 14:06:03;;;;;;;;;;;2.80;99.90;;;;;;4983820;28;19917;-79
2022/12/04 14:08:35;;;;;;;;;;;2.80;99.90;;;;;;4975429;28;19926;-79
2022/12/04 14:11:02;;;;;;;;;;;2.80;99.90;;;;;;4987545;28;19924;-79
2022/12/04 14:13:35;;;;;;;;;;;4.20;99.90;;;;;;4964736;28;20299;-79
2022/12/04 14:16:06;;;;;;;;;;;2.80;99.90;;;;;;4982837;28;19918;-79
2022/12/04 14:18:31;;;;;;;;;;;2.80;99.90;;;;;;4985081;28;19983;-80
2022/12/04 14:21:03;;;;;;;;;;;2.80;99.90;;;;;;4972846;28;20405;-80
2022/12/04 14:23:33;;;;;;;;;;;2.80;99.90;;;;;;4981255;28;19996;-80
2022/12/04 14:25:58;;;;;;;;;;;2.80;99.90;;;;;;4983281;28;20358;-80
2022/12/04 14:28:30;;;;;;;;;;;3.10;99.90;;;;;;4983589;28;20063;-80
2022/12/04 14:31:05;;;;;;;;;;;2.80;99.90;;;;;;4974734;28;19917;-79
2022/12/04 14:33:33;;;;;;;;;;;2.80;99.90;;;;;;4981462;28;20449;-80
2022/12/04 14:36:01;;;;;;;;;;;3.30;99.90;;;;;;4979769;28;20071;-79
2022/12/04 14:38:27;;;;;;;;;;;3.00;99.90;;;;;;4987816;28;19960;-80
2022/12/04 14:40:55;;;;;;;;;;;2.70;99.90;;;;;;4976358;28;20733;-80
2022/12/04 14:43:32;;;;;;;;;;;2.70;99.90;;;;;;4980502;28;19918;-80
2022/12/04 14:46:17;;;;;;;;;;;2.70;99.90;;;;;;4956770;28;20282;-79
2022/12/04 14:49:01;;;;;;;;;;;2.70;99.90;;;;;;4982298;28;19929;-79
2022/12/04 14:51:31;;;;;;;;;;;2.70;99.90;;;;;;4981374;28;19983;-79
2022/12/04 14:54:07;;;;;;;;;;;2.60;99.90;;;;;;4967721;28;20366;-79
2022/12/04 14:56:36;;;;;;;;;;;2.60;99.90;;;;;;4964113;28;19922;-79